Time;durP1;ratioP1;P1;durP2;ratioP2;P2;SDS_P1;SDS_P2;PMS_P1;PMS_P2;Temp;Humidity;BMP_temperature;BMP_pressure;BME280_temperature;BME280_humidity;BME280_pressure;Samples;Min_cycle;Max_cycle;Signal;HPM_P1;HPM_P2
2022/11/22 00:00:37;;;;;;;23.50;14.05;;;;;;;-0.68;100.00;99072.81;5062371;28;20051;-86
2022/11/22 00:03:04;;;;;;;31.20;14.88;;;;;;;-0.65;100.00;99064.28;5097886;28;20044;-83
2022/11/22 00:05:30;;;;;;;29.92;15.30;;;;;;;-0.64;100.00;99071.13;5074910;28;20050;-86
2022/11/22 00:07:57;;;;;;;28.60;13.80;;;;;;;-0.62;100.00;99069.44;5096498;28;20081;-86
2022/11/22 00:10:24;;;;;;;37.65;17.02;;;;;;;-0.63;100.00;99066.88;5064488;28;20509;-85
2022/11/22 00:12:51;;;;;;;40.95;18.13;;;;;;;-0.65;100.00;99059.16;5077545;28;20060;-85
2022/11/22 00:15:18;;;;;;;34.97;16.25;;;;;;;-0.68;100.00;99065.13;5079396;28;20119;-86
2022/11/22 00:17:46;;;;;;;35.38;16.70;;;;;;;-0.68;100.00;99065.13;5071787;28;20036;-83
2022/11/22 00:20:13;;;;;;;32.40;16.10;;;;;;;-0.64;100.00;99065.13;5089868;28;20085;-84
2022/11/22 00:22:40;;;;;;;36.28;17.27;;;;;;;-0.63;100.00;99059.16;5077258;28;20048;-83
2022/11/22 00:25:08;;;;;;;38.42;16.88;;;;;;;-0.61;100.00;99060.03;5077706;28;20067;-86
2022/11/22 00:27:35;;;;;;;30.52;15.63;;;;;;;-0.59;100.00;99058.34;5081147;28;20477;-85
2022/11/22 00:30:02;;;;;;;36.15;18.42;;;;;;;-0.59;100.00;99045.50;5083006;28;20043;-86
2022/11/22 00:32:28;;;;;;;34.97;18.17;;;;;;;-0.55;100.00;99042.97;5092149;28;20042;-84
2022/11/22 00:34:55;;;;;;;41.25;18.42;;;;;;;-0.52;100.00;99044.72;5079480;28;20391;-85
2022/11/22 00:37:21;;;;;;;38.88;16.92;;;;;;;-0.51;100.00;99055.00;5090907;28;20051;-84
2022/11/22 00:39:48;;;;;;;35.83;15.90;;;;;;;-0.48;100.00;99040.44;5089909;28;20028;-88
2022/11/22 00:42:15;;;;;;;39.08;16.80;;;;;;;-0.46;100.00;99042.19;5092711;28;20105;-84
2022/11/22 00:44:42;;;;;;;35.75;15.80;;;;;;;-0.44;100.00;99037.94;5090441;28;20486;-86
2022/11/22 00:47:08;;;;;;;38.60;16.83;;;;;;;-0.40;100.00;99038.81;5086808;28;20036;-84
2022/11/22 00:49:35;;;;;;;43.50;17.67;;;;;;;-0.40;100.00;99031.13;5102522;28;20118;-85
2022/11/22 00:52:02;;;;;;;35.97;17.20;;;;;;;-0.39;100.00;99025.97;5088767;28;20071;-85
2022/11/22 00:54:29;;;;;;;41.72;17.55;;;;;;;-0.38;100.00;99025.13;5087522;28;20044;-86
2022/11/22 00:56:56;;;;;;;40.03;16.70;;;;;;;-0.36;100.00;99030.28;5102085;28;20852;-85
2022/11/22 00:59:23;;;;;;;37.83;17.65;;;;;;;-0.34;100.00;99021.75;5102343;28;20055;-85
2022/11/22 01:01:50;;;;;;;43.78;17.83;;;;;;;-0.31;100.00;99013.19;5096083;28;20040;-85
2022/11/22 01:04:16;;;;;;;43.50;17.42;;;;;;;-0.30;100.00;99002.06;5064739;28;20048;-86
2022/11/22 01:06:43;;;;;;;38.72;17.40;;;;;;;-0.30;100.00;99002.06;5096249;28;20521;-85
2022/11/22 01:09:12;;;;;;;42.90;19.17;;;;;;;-0.25;100.00;99012.38;5069047;28;20048;-85
2022/11/22 01:11:40;;;;;;;47.95;20.33;;;;;;;-0.24;100.00;99011.53;5097276;28;20044;-86
2022/11/22 01:14:07;;;;;;;45.20;17.95;;;;;;;-0.25;100.00;99015.81;5081934;28;20059;-84
2022/11/22 01:16:34;;;;;;;41.10;17.98;;;;;;;-0.24;100.00;99007.25;5099592;28;20115;-85
2022/11/22 01:19:00;;;;;;;41.33;20.00;;;;;;;-0.21;100.00;99011.53;5092773;28;20056;-85
2022/11/22 01:21:27;;;;;;;50.55;21.92;;;;;;;-0.20;100.00;99006.41;5080832;28;20106;-83
2022/11/22 01:23:53;;;;;;;45.60;19.95;;;;;;;-0.18;100.00;99003.88;5064625;28;20083;-83
2022/11/22 01:26:20;;;;;;;43.17;17.77;;;;;;;-0.15;100.00;99003.88;5104832;28;20039;-84
2022/11/22 01:28:47;;;;;;;37.30;19.73;;;;;;;-0.17;100.00;98998.75;5087134;28;20087;-84
2022/11/22 01:31:15;;;;;;;36.55;19.05;;;;;;;-0.15;100.00;98995.31;5063590;28;20089;-82
2022/11/22 01:33:42;;;;;;;37.40;17.55;;;;;;;-0.13;100.00;98993.59;5098937;28;20046;-85
2022/11/22 01:36:08;;;;;;;37.28;18.52;;;;;;;-0.12;100.00;98988.47;5086743;28;20031;-85
2022/11/22 01:38:35;;;;;;;38.97;19.10;;;;;;;-0.11;100.00;98990.19;5099354;28;20091;-85
2022/11/22 01:41:01;;;;;;;33.72;16.08;;;;;;;-0.09;100.00;98982.47;5081796;28;20040;-85
2022/11/22 01:43:29;;;;;;;42.75;19.80;;;;;;;-0.08;100.00;98985.09;5069043;28;20178;-85
2022/11/22 01:46:10;;;;;;;39.70;18.10;;;;;;;-0.08;100.00;98984.22;5095004;28;20063;-87
2022/11/22 01:49:00;;;;;;;41.35;19.13;;;;;;;-0.05;100.00;98985.09;5065959;28;20843;-84
2022/11/22 01:51:42;;;;;;;36.63;17.00;;;;;;;-0.03;100.00;98982.53;5076081;28;20040;-85
2022/11/22 01:54:17;;;;;;;42.10;20.80;;;;;;;-0.03;100.00;98967.97;5056610;28;20060;-84
2022/11/22 01:56:50;;;;;;;41.33;18.50;;;;;;;-0.03;100.00;98962.84;5085999;28;20381;-83
2022/11/22 01:59:20;;;;;;;41.83;19.33;;;;;;;0.02;100.00;98978.28;5064866;28;20413;-83
2022/11/22 02:01:46;;;;;;;41.95;20.23;;;;;;;0.02;100.00;98970.56;5075405;28;20047;-83
2022/11/22 02:04:17;;;;;;;36.80;17.25;;;;;;;0.04;100.00;98971.44;5085960;28;20523;-84
2022/11/22 02:06:54;;;;;;;41.88;18.23;;;;;;;0.05;100.00;98959.44;5076536;28;20163;-84
2022/11/22 02:09:22;;;;;;;40.47;19.63;;;;;;;0.04;100.00;98975.72;5104492;28;20046;-85
2022/11/22 02:11:53;;;;;;;40.22;20.35;;;;;;;0.06;100.00;98971.44;5083994;28;20100;-84
2022/11/22 02:14:29;;;;;;;41.35;19.98;;;;;;;0.05;100.00;98962.00;5081068;28;20044;-84
2022/11/22 02:16:56;;;;;;;40.58;20.23;;;;;;;0.04;100.00;98962.84;5101054;28;20194;-84
2022/11/22 02:19:40;;;;;;;37.03;18.48;;;;;;;0.05;100.00;98956.88;5081268;28;20052;-84
2022/11/22 02:22:32;;;;;;;;;;;;;;;0.08;100.00;98956.88;5087677;28;20092;-86
2022/11/22 02:25:30;;;;;;;39.33;17.85;;;;;;;0.11;100.00;98957.75;5089536;28;19966;-83
2022/11/22 02:27:57;;;;;;;36.17;18.08;;;;;;;0.13;100.00;98953.50;5061836;28;20082;-83
2022/11/22 02:30:25;;;;;;;38.40;18.60;;;;;;;0.13;100.00;98950.91;5095485;28;20061;-85
2022/11/22 02:32:51;;;;;;;38.58;18.58;;;;;;;0.11;100.00;98952.59;5076885;28;20047;-83
2022/11/22 02:35:26;;;;;;;39.53;17.90;;;;;;;0.10;100.00;98948.31;5068022;28;20137;-84
2022/11/22 02:37:58;;;;;;;37.70;17.73;;;;;;;0.12;100.00;98951.75;5083405;28;20116;-84
2022/11/22 02:40:28;;;;;;;39.60;20.40;;;;;;;0.12;100.00;98956.06;5076906;28;20166;-84
2022/11/22 02:43:02;;;;;;;39.17;18.67;;;;;;;0.11;100.00;98951.75;5079651;28;20071;-83
2022/11/22 02:45:29;;;;;;;;;;;;;;;0.13;100.00;98945.78;5077463;28;20037;-84
2022/11/22 02:48:11;;;;;;;34.55;17.30;;;;;;;0.15;100.00;98945.78;5104278;28;19943;-88
2022/11/22 02:50:37;;;;;;;33.97;17.40;;;;;;;0.20;100.00;98945.81;5107774;28;20028;-88
2022/11/22 02:53:05;;;;;;;37.28;18.70;;;;;;;0.22;100.00;98946.66;5086498;28;20452;-87
2022/11/22 02:55:32;;;;;;;35.63;16.70;;;;;;;0.25;100.00;98947.56;5089669;28;20370;-84
2022/11/22 02:57:59;;;;;;;31.58;17.67;;;;;;;0.27;100.00;98947.56;5078024;28;20120;-85
2022/11/22 03:00:25;;;;;;;36.75;17.52;;;;;;;0.28;100.00;98938.97;5101563;28;20112;-84
2022/11/22 03:02:52;;;;;;;37.10;18.23;;;;;;;0.26;100.00;98928.69;5082446;28;20061;-82
2022/11/22 03:05:19;;;;;;;31.48;16.67;;;;;;;0.26;100.00;98928.69;5064660;28;20486;-84
2022/11/22 03:07:45;;;;;;;32.22;16.90;;;;;;;0.24;100.00;98925.22;5093869;28;20070;-87
2022/11/22 03:10:12;;;;;;;35.47;18.20;;;;;;;0.22;100.00;98926.97;5085048;28;20571;-84
2022/11/22 03:12:38;;;;;;;37.85;18.15;;;;;;;0.20;100.00;98928.66;5085468;28;20104;-83
2022/11/22 03:15:08;;;;;;;30.58;18.15;;;;;;;0.22;100.00;98928.66;5081123;28;20123;-84
2022/11/22 03:17:34;;;;;;;37.17;18.85;;;;;;;0.18;100.00;98930.34;5101721;28;20051;-83
2022/11/22 03:20:01;;;;;;;33.78;18.63;;;;;;;0.20;100.00;98930.38;5076946;28;20156;-83
2022/11/22 03:22:28;;;;;;;33.90;16.45;;;;;;;0.24;100.00;98935.53;5093291;28;20058;-86
2022/11/22 03:24:55;;;;;;;32.20;17.67;;;;;;;0.16;100.00;98917.47;5095569;28;20074;-85
2022/11/22 03:27:21;;;;;;;40.75;18.40;;;;;;;0.19;100.00;98923.50;5099540;28;20064;-88
2022/11/22 03:29:50;;;;;;;36.95;19.38;;;;;;;0.18;100.00;98927.75;5074832;28;20071;-89
2022/11/22 03:32:17;;;;;;;41.38;18.25;;;;;;;0.15;100.00;98933.75;5079909;28;20044;-85
2022/11/22 03:34:43;;;;;;;32.97;17.52;;;;;;;0.16;100.00;98917.47;5120831;28;20055;-89
2022/11/22 03:37:10;;;;;;;38.10;19.02;;;;;;;0.15;100.00;98917.47;5124092;28;20039;-85
2022/11/22 03:39:36;;;;;;;38.58;17.95;;;;;;;0.14;100.00;98916.63;5081344;28;20036;-85
2022/11/22 03:42:03;;;;;;;42.20;18.80;;;;;;;0.13;100.00;98921.72;5102373;28;20059;-84
2022/11/22 03:44:30;;;;;;;43.53;20.50;;;;;;;0.14;100.00;98929.50;5101194;28;20375;-85
2022/11/22 03:46:57;;;;;;;39.35;18.58;;;;;;;0.13;100.00;98929.47;5110477;28;20040;-85
2022/11/22 03:49:23;;;;;;;36.90;18.40;;;;;;;0.11;100.00;98926.03;5103410;28;20122;-84
2022/11/22 03:51:50;;;;;;;43.17;21.38;;;;;;;0.08;100.00;98921.72;5086930;28;20073;-85
2022/11/22 03:54:17;;;;;;;48.10;20.10;;;;;;;0.07;100.00;98916.59;5115023;28;20036;-85
2022/11/22 03:56:43;;;;;;;38.97;19.63;;;;;;;0.08;100.00;98921.72;5112219;28;20068;-88
2022/11/22 03:59:10;;;;;;;38.63;20.17;;;;;;;0.06;100.00;98907.97;5092150;28;20112;-85
2022/11/22 04:01:37;;;;;;;36.88;17.90;;;;;;;0.09;100.00;98910.59;5106001;28;20032;-84
2022/11/22 04:04:04;;;;;;;39.88;20.90;;;;;;;0.11;100.00;98910.59;5089102;28;20070;-84
2022/11/22 04:06:30;;;;;;;38.67;19.83;;;;;;;0.13;100.00;98914.91;5102813;28;20052;-87
2022/11/22 04:08:57;;;;;;;38.50;18.52;;;;;;;0.13;100.00;98926.88;5075807;28;20105;-86
2022/11/22 04:11:23;;;;;;;40.65;20.35;;;;;;;0.15;100.00;98923.47;5112030;28;20074;-87
2022/11/22 04:16:34;;;;;;;39.45;20.45;;;;;;;0.12;100.00;98920.88;5080120;28;20032;-84
2022/11/22 04:19:01;;;;;;;34.85;18.83;;;;;;;0.11;100.00;98926.03;5097649;28;20055;-86
2022/11/22 04:21:32;;;;;;;44.08;19.80;;;;;;;0.09;100.00;98931.19;5060436;28;20086;-83
2022/11/22 04:26:44;;;;;;;40.85;17.88;;;;;;;0.13;100.00;98930.34;5090760;28;20028;-83
2022/11/22 04:29:11;;;;;;;38.15;19.25;;;;;;;0.15;100.00;98917.47;5115790;28;20096;-87
2022/11/22 04:34:23;;;;;;;41.25;19.98;;;;;;;0.16;100.00;98925.19;5100375;28;20030;-83
2022/11/22 04:36:50;;;;;;;36.00;17.20;;;;;;;0.14;100.00;98924.34;5097706;28;20115;-86
2022/11/22 04:39:16;;;;;;;43.33;19.40;;;;;;;0.16;100.00;98921.78;5104825;28;20051;-85
2022/11/22 04:41:43;;;;;;;34.53;17.17;;;;;;;0.18;100.00;98932.91;5093835;28;20048;-84
2022/11/22 04:46:55;;;;;;;35.78;17.35;;;;;;;0.20;100.00;98933.78;5107819;28;20119;-83
2022/11/22 04:49:21;;;;;;;40.78;19.40;;;;;;;0.23;100.00;98938.09;5076316;28;20742;-85
2022/11/22 04:54:33;;;;;;;33.63;15.73;;;;;;;0.25;100.00;98933.81;5095899;28;20410;-87
2022/11/22 04:57:03;;;;;;;35.85;16.10;;;;;;;0.27;100.00;98932.97;5081324;28;20093;-84
2022/11/22 04:59:30;;;;;;;36.25;17.02;;;;;;;0.29;100.00;98938.13;5062883;28;20451;-84
2022/11/22 05:01:56;;;;;;;30.13;16.50;;;;;;;0.30;100.00;98932.13;5095237;28;20040;-86
2022/11/22 05:04:25;;;;;;;31.38;16.75;;;;;;;0.33;100.00;98934.72;5079165;28;20050;-84
2022/11/22 05:06:52;;;;;;;32.83;16.40;;;;;;;0.33;100.00;98927.84;5077915;28;20105;-86
2022/11/22 05:09:19;;;;;;;46.58;22.15;;;;;;;0.36;100.00;98928.72;5078084;28;20071;-87
2022/11/22 05:11:46;;;;;;;30.95;15.63;;;;;;;0.35;100.00;98929.56;5079073;28;20028;-85
2022/11/22 05:14:12;;;;;;;30.08;15.05;;;;;;;0.37;100.00;98933.88;5089354;28;20044;-90
2022/11/22 05:16:39;;;;;;;34.10;15.68;;;;;;;0.37;100.00;98933.88;5098009;28;20051;-87
2022/11/22 05:19:06;;;;;;;28.27;15.80;;;;;;;0.38;100.00;98937.28;5057075;28;20058;-85
2022/11/22 05:21:36;;;;;;;35.10;15.93;;;;;;;0.41;100.00;98945.06;5086853;28;20036;-84
2022/11/22 05:24:02;;;;;;;32.80;16.35;;;;;;;0.42;100.00;98942.47;5094011;28;20398;-83
2022/11/22 05:26:33;;;;;;;29.38;16.60;;;;;;;0.43;100.00;98935.59;5073210;28;20473;-85
2022/11/22 05:29:07;;;;;;;34.03;15.93;;;;;;;0.44;100.00;98942.47;5092348;28;20069;-83
2022/11/22 05:31:36;;;;;;;33.03;16.00;;;;;;;0.45;100.00;98946.78;5078565;28;20044;-84
2022/11/22 05:34:04;;;;;;;31.45;16.75;;;;;;;0.47;100.00;98942.47;5075655;28;20109;-86
2022/11/22 05:36:33;;;;;;;33.72;15.65;;;;;;;0.49;100.00;98945.94;5077816;28;20075;-83
2022/11/22 05:39:00;;;;;;;29.77;15.93;;;;;;;0.47;100.00;98935.63;5092987;28;20460;-86
2022/11/22 05:41:27;;;;;;;23.15;13.77;;;;;;;0.47;100.00;98938.22;5087399;28;20056;-82
2022/11/22 05:43:56;;;;;;;27.88;15.50;;;;;;;0.47;100.00;98935.63;5074143;28;20048;-83
2022/11/22 05:46:26;;;;;;;37.17;15.48;;;;;;;0.49;100.00;98933.06;5075612;28;20794;-86
2022/11/22 05:48:56;;;;;;;25.05;14.25;;;;;;;0.48;100.00;98933.91;5092782;28;20063;-86
2022/11/22 05:51:28;;;;;;;27.48;14.65;;;;;;;0.49;100.00;98946.78;5071477;28;20134;-85
2022/11/22 05:53:55;;;;;;;32.58;15.43;;;;;;;0.49;100.00;98939.06;5076343;28;20040;-85
2022/11/22 05:56:24;;;;;;;30.08;15.63;;;;;;;0.53;100.00;98945.09;5075009;28;20724;-85
2022/11/22 06:01:32;;;;;;;27.80;14.82;;;;;;;0.56;100.00;98950.28;5075130;28;20060;-86
2022/11/22 06:03:58;;;;;;;26.40;13.85;;;;;;;0.58;100.00;98945.13;5061688;28;20055;-85
2022/11/22 06:06:25;;;;;;;30.13;13.90;;;;;;;0.61;100.00;98946.00;5073411;28;20078;-83
2022/11/22 06:08:52;;;;;;;45.55;20.77;;;;;;;0.65;100.00;98950.31;5072393;28;20042;-83
2022/11/22 06:11:26;;;;;;;35.45;15.60;;;;;;;0.67;100.00;98957.19;5089890;28;20135;-83
2022/11/22 06:13:57;;;;;;;27.83;14.38;;;;;;;0.68;100.00;98952.03;5085144;28;20040;-82
2022/11/22 06:16:25;;;;;;;26.90;14.23;;;;;;;0.67;100.00;98947.72;5087817;28;20051;-85
2022/11/22 06:18:54;;;;;;;31.40;15.02;;;;;;;0.69;100.00;98946.00;5092617;28;20134;-84
2022/11/22 06:21:25;;;;;;;29.20;14.48;;;;;;;0.74;100.00;98944.31;5058383;28;20308;-85
2022/11/22 06:23:55;;;;;;;27.00;15.50;;;;;;;0.76;100.00;98949.47;5069910;28;20048;-84
2022/11/22 06:26:23;;;;;;;31.13;14.32;;;;;;;0.78;100.00;98953.78;5076437;28;20139;-84
2022/11/22 06:28:53;;;;;;;24.00;13.02;;;;;;;0.79;100.00;98959.78;5075870;28;20533;-83
2022/11/22 06:31:26;;;;;;;29.27;14.60;;;;;;;0.79;100.00;98962.38;5075007;28;20464;-85
2022/11/22 06:33:55;;;;;;;22.70;12.03;;;;;;;0.81;100.00;98963.25;5080495;28;20062;-83
2022/11/22 06:36:26;;;;;;;24.15;12.60;;;;;;;0.80;100.00;98959.78;5096995;28;20529;-85
2022/11/22 06:38:53;;;;;;;26.08;13.68;;;;;;;0.82;100.00;98968.38;5092313;28;20124;-84
2022/11/22 06:41:23;;;;;;;26.25;12.57;;;;;;;0.84;100.00;98958.09;5075741;28;20126;-85
2022/11/22 06:43:55;;;;;;;27.20;14.00;;;;;;;0.84;100.00;98952.94;5072234;28;20674;-83
2022/11/22 06:46:23;;;;;;;29.70;14.15;;;;;;;0.84;100.00;98964.97;5070827;28;20119;-83
2022/11/22 06:48:53;;;;;;;29.70;13.63;;;;;;;0.84;100.00;98964.97;5087107;28;20050;-83
2022/11/22 06:51:24;;;;;;;27.55;14.48;;;;;;;0.85;100.00;98977.84;5073111;28;20119;-83
2022/11/22 06:53:53;;;;;;;27.35;13.40;;;;;;;0.85;100.00;98971.81;5060257;28;20036;-85
2022/11/22 06:56:28;;;;;;;32.33;14.23;;;;;;;0.88;100.00;98972.69;5088660;28;20055;-84
2022/11/22 06:58:55;;;;;;;24.40;13.73;;;;;;;0.86;100.00;98981.28;5069804;28;20040;-85
2022/11/22 07:01:27;;;;;;;30.90;15.10;;;;;;;0.87;100.00;98972.69;5093148;28;20051;-85
2022/11/22 07:03:56;;;;;;;26.02;13.73;;;;;;;0.87;100.00;98977.84;5073405;28;20048;-83
2022/11/22 07:06:25;;;;;;;23.83;13.90;;;;;;;0.88;100.00;98979.56;5075760;28;20044;-84
2022/11/22 07:08:53;;;;;;;23.50;13.02;;;;;;;0.85;100.00;98980.41;5085963;28;20074;-83
2022/11/22 07:11:26;;;;;;;25.35;13.27;;;;;;;0.84;100.00;98991.56;5091087;28;20126;-82
2022/11/22 07:13:56;;;;;;;21.88;12.95;;;;;;;0.86;100.00;98996.72;5083936;28;20210;-85
2022/11/22 07:16:23;;;;;;;21.17;13.63;;;;;;;0.87;100.00;98999.31;5070238;28;20060;-84
2022/11/22 07:18:52;;;;;;;25.90;14.05;;;;;;;0.89;100.00;99007.06;5083285;28;20050;-81
2022/11/22 07:21:23;;;;;;;27.58;15.68;;;;;;;0.93;100.00;99003.63;5076835;28;20102;-83
2022/11/22 07:23:55;;;;;;;27.77;13.77;;;;;;;0.93;100.00;99001.91;5060324;28;20408;-81
2022/11/22 07:26:24;;;;;;;22.83;11.80;;;;;;;0.99;100.00;99013.94;5089566;28;20048;-84
2022/11/22 07:28:51;;;;;;;25.33;12.50;;;;;;;1.06;100.00;99020.00;5072440;28;20128;-83
2022/11/22 07:31:18;;;;;;;24.67;14.20;;;;;;;1.13;100.00;99022.59;5076339;28;20040;-82
2022/11/22 07:33:46;;;;;;;24.35;12.23;;;;;;;1.20;100.00;99015.75;5071102;28;20097;-84
2022/11/22 07:36:19;;;;;;;21.50;11.90;;;;;;;1.24;100.00;99009.72;5103174;28;20056;-88
2022/11/22 07:38:47;;;;;;;23.38;11.93;;;;;;;1.30;100.00;99011.44;5093652;28;20048;-84
2022/11/22 07:41:18;;;;;;;28.75;12.48;;;;;;;1.38;100.00;99024.38;5096828;28;20118;-82
2022/11/22 07:43:45;;;;;;;25.42;11.85;;;;;;;1.43;100.00;99031.25;5073329;28;20415;-83
2022/11/22 07:46:28;;;;;;;18.17;9.85;;;;;;;1.49;100.00;99041.56;5084284;28;20095;-83
2022/11/22 07:48:54;;;;;;;21.73;10.98;;;;;;;1.55;100.00;99039.88;5076750;28;20040;-83
2022/11/22 07:51:21;;;;;;;22.95;13.45;;;;;;;1.61;100.00;99033.00;5056853;28;20044;-83
2022/11/22 07:53:48;;;;;;;19.38;12.20;;;;;;;1.64;100.00;99040.75;5079627;28;20044;-84
2022/11/22 07:56:15;;;;;;;21.58;11.93;;;;;;;1.69;100.00;99037.31;5088201;28;20049;-83
2022/11/22 07:58:42;;;;;;;22.05;13.02;;;;;;;1.70;100.00;99032.16;5078355;28;20137;-83
2022/11/22 08:01:13;;;;;;;23.90;12.23;;;;;;;1.72;100.00;99038.19;5062114;28;20044;-83
2022/11/22 08:03:40;;;;;;;19.80;11.30;;;;;;;1.75;100.00;99040.75;5055496;28;20043;-87
2022/11/22 08:06:10;;;;;;;20.27;10.48;;;;;;;1.76;100.00;99036.44;5067427;28;20040;-84
2022/11/22 08:08:37;;;;;;;17.05;9.90;;;;;;;1.81;100.00;99029.56;5077896;28;20442;-84
2022/11/22 08:11:05;;;;;;;24.05;12.98;;;;;;;1.84;100.00;99034.75;5076464;28;20040;-84
2022/11/22 08:13:33;;;;;;;41.65;13.98;;;;;;;1.87;100.00;99041.63;5077787;28;20090;-83
2022/11/22 08:16:10;;;;;;;42.58;13.82;;;;;;;1.91;100.00;99039.03;5090680;28;20054;-83
2022/11/22 08:18:39;;;;;;;19.95;10.55;;;;;;;1.95;100.00;99043.31;5079111;28;20036;-83
2022/11/22 08:21:10;;;;;;;21.05;11.00;;;;;;;2.00;100.00;99052.81;5093580;28;20048;-85
2022/11/22 08:23:38;;;;;;;20.15;10.23;;;;;;;2.03;100.00;99052.81;5073921;28;20062;-83
2022/11/22 08:26:05;;;;;;;12.93;9.48;;;;;;;2.08;100.00;99051.09;5075446;28;20069;-85
2022/11/22 08:28:32;;;;;;;17.00;10.27;;;;;;;2.11;100.00;99056.22;5080282;28;20048;-84
2022/11/22 08:31:11;;;;;;;16.50;10.25;;;;;;;2.14;100.00;99061.41;5070201;28;20669;-83
2022/11/22 08:33:38;;;;;;;19.13;9.75;;;;;;;2.14;100.00;99064.00;5063024;28;20039;-81
2022/11/22 08:36:06;;;;;;;17.38;9.93;;;;;;;2.17;100.00;99060.56;5072021;28;20048;-83
2022/11/22 08:38:32;;;;;;;17.50;10.15;;;;;;;2.20;100.00;99060.53;5081882;28;20044;-83
2022/11/22 08:40:59;;;;;;;15.27;9.27;;;;;;;2.24;100.00;99049.34;5083339;28;20098;-83
2022/11/22 08:43:26;;;;;;;15.27;9.02;;;;;;;2.31;100.00;99056.22;5065615;28;20055;-85
2022/11/22 08:45:58;;;;;;;15.00;10.20;;;;;;;2.37;100.00;99057.94;5053363;28;20075;-85
2022/11/22 08:48:26;;;;;;;12.32;7.82;;;;;;;2.42;100.00;99067.38;5072085;28;20078;-85
2022/11/22 08:50:56;;;;;;;15.18;8.65;;;;;;;2.48;100.00;99072.56;5057693;28;20036;-84
2022/11/22 08:53:23;;;;;;;16.45;9.77;;;;;;;2.54;100.00;99073.41;5070601;28;20036;-85
2022/11/22 08:55:50;;;;;;;11.25;7.13;;;;;;;2.60;100.00;99069.09;5076905;28;20054;-84
2022/11/22 08:58:17;;;;;;;13.70;7.40;;;;;;;2.68;100.00;99063.91;5092024;28;20040;-82
2022/11/22 09:00:44;;;;;;;28.10;10.70;;;;;;;2.78;100.00;99070.75;5060924;28;20041;-84
2022/11/22 09:03:11;;;;;;;13.75;9.60;;;;;;;2.84;100.00;99084.53;5086244;28;20052;-84
2022/11/22 09:05:39;;;;;;;11.55;7.70;;;;;;;2.84;100.00;99077.63;5085543;28;20060;-84
2022/11/22 09:08:06;;;;;;;17.80;10.43;;;;;;;2.85;100.00;99083.69;5106125;28;20458;-85
2022/11/22 09:10:32;;;;;;;12.25;7.53;;;;;;;2.87;100.00;99080.22;5085379;28;20040;-88
2022/11/22 09:12:59;;;;;;;9.57;6.78;;;;;;;2.96;100.00;99092.28;5087067;28;20044;-87
2022/11/22 09:15:26;;;;;;;13.98;7.60;;;;;;;3.02;100.00;99097.38;5086802;28;20036;-82
2022/11/22 09:18:01;;;;;;;10.75;7.72;;;;;;;3.06;100.00;99101.69;5087321;28;20074;-82
2022/11/22 09:20:28;;;;;;;13.57;8.25;;;;;;;3.08;100.00;99099.13;5053730;28;20114;-82
2022/11/22 09:22:54;;;;;;;10.80;7.47;;;;;;;3.18;100.00;99105.09;5076581;28;20060;-84
2022/11/22 09:25:21;;;;;;;14.55;8.38;;;;;;;3.28;100.00;99101.59;5077823;28;20130;-84
2022/11/22 09:27:48;;;;;;;12.65;6.85;;;;;;;3.37;100.00;99103.31;5099079;28;20489;-84
2022/11/22 09:30:15;;;;;;;13.43;8.50;;;;;;;3.45;100.00;99101.53;5059424;28;20086;-81
2022/11/22 09:32:44;;;;;;;12.30;7.32;;;;;;;3.52;100.00;99104.94;5055393;28;20463;-82
2022/11/22 09:35:11;;;;;;;12.82;6.32;;;;;;;3.60;100.00;99111.81;5092999;28;20050;-84
2022/11/22 09:37:40;;;;;;;11.48;5.50;;;;;;;3.68;100.00;99111.75;5087607;28;20072;-81
2022/11/22 09:40:07;;;;;;;10.82;6.72;;;;;;;3.78;100.00;99112.53;5093986;28;20071;-83
2022/11/22 09:43:30;;;;;;;10.95;6.60;;;;;;;3.85;100.00;99109.06;5086849;28;20085;-84
2022/11/22 09:46:40;;;;;;;7.90;6.10;;;;;;;3.97;100.00;99114.16;5080346;28;20097;-83
2022/11/22 09:49:31;;;;;;;11.07;6.53;;;;;;;4.13;100.00;99119.22;5060406;28;20624;-83
2022/11/22 09:52:24;;;;;;;14.57;6.78;;;;;;;4.22;100.00;99118.28;5079350;28;20441;-83
2022/11/22 09:55:05;;;;;;;11.10;6.68;;;;;;;4.27;100.00;99119.97;5096787;28;20044;-83
2022/11/22 09:57:50;;;;;;;9.80;5.47;;;;;;;4.39;100.00;99124.19;5081030;28;20044;-87
2022/11/22 10:00:24;;;;;;;9.73;6.18;;;;;;;4.47;100.00;99118.94;5108643;28;20046;-88
2022/11/22 10:03:26;;;;;;;10.98;6.50;;;;;;;4.49;100.00;99124.13;5084756;28;20044;-83
2022/11/22 10:05:56;;;;;;;6.28;5.22;;;;;;;4.46;100.00;99120.69;5071823;28;20047;-84
2022/11/22 10:08:33;;;;;;;6.93;5.60;;;;;;;4.50;100.00;99125.81;5090982;28;20104;-84
2022/11/22 10:11:00;;;;;;;11.23;6.75;;;;;;;4.49;100.00;99119.81;5075444;28;20079;-81
2022/11/22 10:13:52;;;;;;;11.85;5.72;;;;;;;4.44;100.00;99111.22;5074609;28;20127;-83
2022/11/22 10:16:39;;;;;;;14.38;5.63;;;;;;;4.34;100.00;99107.84;5071762;28;20060;-81
2022/11/22 10:19:34;;;;;;;8.80;5.88;;;;;;;4.27;100.00;99106.16;5071211;28;20052;-83
2022/11/22 10:22:01;;;;;;;8.45;5.47;;;;;;;4.26;100.00;99110.50;5091177;28;20593;-81
2022/11/22 10:24:32;;;;;;;10.10;5.43;;;;;;;4.29;100.00;99109.63;5089208;28;20042;-85
2022/11/22 10:27:01;;;;;;;11.00;5.68;;;;;;;4.31;100.00;99107.84;5062649;28;20097;-82
2022/11/22 10:29:50;;;;;;;8.85;5.97;;;;;;;4.33;100.00;99105.25;5054184;28;20047;-83
2022/11/22 10:32:36;;;;;;;7.53;5.28;;;;;;;4.39;100.00;99106.06;5075819;28;20045;-82
2022/11/22 10:35:30;;;;;;;8.52;5.15;;;;;;;4.46;100.00;99094.78;5083878;28;20111;-83
2022/11/22 10:38:42;;;;;;;8.50;5.13;;;;;;;4.60;100.00;99093.78;5085723;28;20044;-85
2022/11/22 10:41:29;;;;;;;5.90;4.68;;;;;;;4.83;100.00;99095.28;5096028;28;20047;-82
2022/11/22 10:44:24;;;;;;;9.27;5.25;;;;;;;5.03;100.00;99097.66;5095376;28;20461;-81
2022/11/22 10:47:09;;;;;;;11.43;5.72;;;;;;;5.19;100.00;99088.81;5073233;28;20475;-81
2022/11/22 10:50:17;;;;;;;9.45;5.70;;;;;;;5.30;100.00;99086.09;5088974;28;20047;-83
2022/11/22 10:53:01;;;;;;;7.13;4.32;;;;;;;5.39;100.00;99090.31;5086745;28;20040;-83
2022/11/22 10:55:36;;;;;;;8.70;5.72;;;;;;;5.44;100.00;99085.91;5085051;28;20047;-82
2022/11/22 10:58:40;;;;;;;6.28;4.50;;;;;;;5.45;100.00;99082.44;5093001;28;20485;-83
2022/11/22 11:01:35;;;;;;;10.90;5.40;;;;;;;5.49;100.00;99075.44;5069492;28;20047;-85
2022/11/22 11:04:04;;;;;;;9.60;5.25;;;;;;;5.55;100.00;99068.44;5072964;28;20040;-81
2022/11/22 11:06:46;;;;;;;7.18;4.60;;;;;;;5.61;100.00;99076.16;5057669;28;20036;-81
2022/11/22 11:09:59;;;;;;;7.53;4.65;;;;;;;5.67;100.00;99071.75;5075177;28;20127;-84
2022/11/22 11:12:40;;;;;;;7.95;5.30;;;;;;;5.67;100.00;99063.97;5067136;28;20044;-84
2022/11/22 11:15:19;;;;;;;5.40;3.35;;;;;;;5.66;100.00;99070.91;5089269;28;20118;-84
2022/11/22 11:17:53;;;;;;;7.07;4.22;;;;;;;5.67;100.00;99062.25;5088131;28;20075;-85
2022/11/22 11:20:36;;;;;;;6.75;4.82;;;;;;;5.74;100.00;99063.00;5075175;28;20078;-82
2022/11/22 11:23:03;;;;;;;4.73;3.70;;;;;;;5.80;100.00;99058.56;5084274;28;20386;-85
2022/11/22 11:25:32;;;;;;;13.35;4.38;;;;;;;5.90;100.00;99063.63;5082265;28;20063;-82
2022/11/22 11:28:26;;;;;;;6.97;4.57;;;;;;;5.98;100.00;99064.38;5094269;28;20040;-85
2022/11/22 11:30:58;;;;;;;7.03;4.20;;;;;;;6.02;100.00;99068.63;5094856;28;20050;-83
2022/11/22 11:33:37;;;;;;;4.88;4.07;;;;;;;6.06;100.00;99061.66;5099430;28;20043;-83
2022/11/22 11:36:11;;;;;;;5.65;3.58;;;;;;;6.09;100.00;99059.03;5081810;28;20407;-83
2022/11/22 11:38:40;;;;;;;6.20;3.83;;;;;;;6.15;99.45;99055.47;5052547;28;20036;-83
2022/11/22 11:41:17;;;;;;;7.03;4.43;;;;;;;6.17;98.29;99054.56;5081644;28;20040;-83
2022/11/22 11:43:45;;;;;;;5.93;3.60;;;;;;;6.14;98.18;99046.81;5075757;28;20478;-83
2022/11/22 11:46:27;;;;;;;4.95;3.38;;;;;;;6.17;99.19;99048.50;5092262;28;20135;-84
2022/11/22 11:48:56;;;;;;;7.50;3.55;;;;;;;6.20;98.12;99045.84;5073493;28;20046;-86
2022/11/22 11:51:39;;;;;;;11.63;4.45;;;;;;;6.21;97.52;99048.41;5070788;28;20154;-86
2022/11/22 11:54:18;;;;;;;6.28;3.45;;;;;;;6.25;97.05;99050.06;5071259;28;20056;-83